Gujranwala Weather



Gujranwala's Current Weather

Temprature 20o smoke

smoke

Rain: 0 %

Min Temprature20o
Max Temprature20o
Humidity64
Wind Speed1.92 m/h
Sun Rise05:41:09
Sun Set18:27:58
Current Time: 09-Apr-2020 03:13:44
Lat/Lon: 32.16, 74.19




Gujranwala's Geo Location



Gujranwala's Weather Forecast

Time Overall Temp Min Temp Max Temp Humidity Wind Speed Rain
09-Apr-2020 (Thu)
05:00:00 clear sky 18.340 17.450 18.340 48 0.97 m/h 0 %
08:00:00 broken clouds 23.540 22.870 23.540 39 0.55 m/h 0 %
11:00:00 broken clouds 29.620 29.180 29.620 26 1.7 m/h 0 %
14:00:00 overcast clouds 31.680 31.460 31.680 20 1.08 m/h 0 %
17:00:00 broken clouds 30.330 30.330 30.330 25 2.41 m/h 0 %
20:00:00 overcast clouds 23.850 23.850 23.850 32 3.34 m/h 0 %
23:00:00 overcast clouds 22.030 22.030 22.030 35 2.67 m/h 0 %
10-Apr-2020 (Fri)
02:00:00 light rain 20.490 20.490 20.490 40 1.3 m/h 13 %
05:00:00 light rain 19.260 19.260 19.260 51 1.79 m/h 67 %
08:00:00 light rain 23.620 23.620 23.620 44 2.11 m/h 25 %
11:00:00 few clouds 30.560 30.560 30.560 27 1.98 m/h 0 %
14:00:00 clear sky 33.360 33.360 33.360 21 1.45 m/h 0 %
17:00:00 clear sky 32.150 32.150 32.150 24 3.16 m/h 0 %
20:00:00 clear sky 25.910 25.910 25.910 33 3.12 m/h 0 %
23:00:00 clear sky 23.400 23.400 23.400 39 3.1 m/h 0 %
11-Apr-2020 (Sat)
02:00:00 few clouds 21.600 21.600 21.600 47 2.14 m/h 0 %
05:00:00 scattered clouds 20.590 20.590 20.590 48 1.82 m/h 0 %
08:00:00 few clouds 25.770 25.770 25.770 37 2.04 m/h 0 %
11:00:00 scattered clouds 32.550 32.550 32.550 24 3.27 m/h 0 %
14:00:00 broken clouds 35.010 35.010 35.010 18 2.75 m/h 0 %
17:00:00 broken clouds 33.660 33.660 33.660 20 2.42 m/h 0 %
20:00:00 broken clouds 26.770 26.770 26.770 27 1.93 m/h 0 %
23:00:00 broken clouds 24.320 24.320 24.320 32 2.55 m/h 0 %
12-Apr-2020 (Sun)
02:00:00 scattered clouds 22.760 22.760 22.760 35 2.3 m/h 0 %
05:00:00 scattered clouds 21.730 21.730 21.730 36 2.14 m/h 0 %
08:00:00 few clouds 26.840 26.840 26.840 29 1.73 m/h 0 %
11:00:00 few clouds 34.040 34.040 34.040 17 3.34 m/h 0 %
14:00:00 scattered clouds 36.340 36.340 36.340 15 3.39 m/h 0 %
17:00:00 broken clouds 34.900 34.900 34.900 19 2.32 m/h 0 %
20:00:00 broken clouds 27.850 27.850 27.850 25 1.94 m/h 0 %
23:00:00 broken clouds 25.310 25.310 25.310 29 2.13 m/h 0 %
13-Apr-2020 (Mon)
02:00:00 scattered clouds 23.500 23.500 23.500 33 1.55 m/h 0 %
05:00:00 scattered clouds 22.310 22.310 22.310 36 1.8 m/h 0 %
08:00:00 scattered clouds 27.750 27.750 27.750 30 1.97 m/h 0 %
11:00:00 broken clouds 35.410 35.410 35.410 19 1.41 m/h 0 %
14:00:00 scattered clouds 38.200 38.200 38.200 13 2.85 m/h 0 %
17:00:00 few clouds 37.410 37.410 37.410 14 2.3 m/h 0 %
20:00:00 clear sky 29.700 29.700 29.700 22 1.74 m/h 0 %
23:00:00 clear sky 27.420 27.420 27.420 25 2.2 m/h 0 %
14-Apr-2020 (Tue)
02:00:00 clear sky 25.330 25.330 25.330 29 2.28 m/h 0 %

Famous Cities (61)